Time;durP1;ratioP1;P1;durP2;ratioP2;P2;SDS_P1;SDS_P2;PMS_P1;PMS_P2;Temp;Humidity;BMP_temperature;BMP_pressure;BME280_temperature;BME280_humidity;BME280_pressure;Samples;Min_cycle;Max_cycle;Signal;HPM_P1;HPM_P2
2023/01/06 00:02:20;;;;;;;5.47;2.97;;;;;;;;;;4986595;28;20655;-90
2023/01/06 00:05:24;;;;;;;5.23;3.13;;;;;;;;;;4967024;28;20186;-90
2023/01/06 00:08:29;;;;;;;7.13;2.97;;;;;;;;;;4967938;28;20215;-90
2023/01/06 00:11:35;;;;;;;3.03;2.70;;;;;;;;;;4978305;28;20226;-89
2023/01/06 00:14:41;;;;;;;4.73;2.90;;;;;;;;;;4978420;28;20183;-90
2023/01/06 00:17:46;;;;;;;5.40;3.43;;;;;;;;;;4967199;28;20635;-89
2023/01/06 00:20:50;;;;;;;10.00;3.10;;;;;;;;;;4977893;28;20693;-90
2023/01/06 00:23:54;;;;;;;4.60;2.50;;;;;;;;;;4955989;28;20183;-90
2023/01/06 00:26:59;;;;;;;3.20;2.60;;;;;;;;;;4977801;28;20210;-90
2023/01/06 00:30:05;;;;;;;6.20;2.77;;;;;;;;;;4977994;28;20187;-90
2023/01/06 00:33:10;;;;;;;4.40;2.73;;;;;;;;;;4978170;28;20183;-90
2023/01/06 00:36:14;;;;;;;4.17;2.50;;;;;;;;;;4966709;28;20187;-90
2023/01/06 00:39:19;;;;;;;3.37;2.33;;;;;;;;;;4966736;28;20179;-90
2023/01/06 00:42:24;;;;;;;3.47;2.27;;;;;;;;;;4967034;28;20619;-90
2023/01/06 00:45:28;;;;;;;5.50;2.50;;;;;;;;;;4977595;28;20175;-90
2023/01/06 00:48:32;;;;;;;2.40;2.00;;;;;;;;;;4977603;28;20211;-90
2023/01/06 00:51:38;;;;;;;3.60;2.30;;;;;;;;;;4977376;28;20211;-90
2023/01/06 00:54:42;;;;;;;2.80;1.90;;;;;;;;;;4967011;28;20520;-90
2023/01/06 00:57:51;;;;;;;5.07;1.70;;;;;;;;;;4977921;28;20179;-90
2023/01/06 01:00:55;;;;;;;2.17;1.77;;;;;;;;;;4978364;28;20223;-90
2023/01/06 01:03:59;;;;;;;2.97;1.83;;;;;;;;;;4978688;28;20179;-90
2023/01/06 01:07:04;;;;;;;2.43;2.10;;;;;;;;;;4977669;28;20222;-90
2023/01/06 01:10:08;;;;;;;3.47;2.00;;;;;;;;;;4966985;28;20191;-90
2023/01/06 01:13:13;;;;;;;2.90;2.20;;;;;;;;;;4978138;28;20548;-90
2023/01/06 01:16:17;;;;;;;3.37;2.30;;;;;;;;;;4977877;28;20202;-90
2023/01/06 01:19:22;;;;;;;3.47;2.10;;;;;;;;;;4977854;28;20221;-89
2023/01/06 01:22:27;;;;;;;2.23;2.00;;;;;;;;;;4967249;28;20647;-89
2023/01/06 01:25:32;;;;;;;2.73;2.27;;;;;;;;;;4965886;28;20175;-90
2023/01/06 01:28:37;;;;;;;4.37;2.13;;;;;;;;;;4966000;28;20226;-90
2023/01/06 01:31:42;;;;;;;3.77;1.80;;;;;;;;;;4955553;28;20222;-89
2023/01/06 01:34:45;;;;;;;2.70;1.90;;;;;;;;;;4955176;28;20198;-89
2023/01/06 01:37:50;;;;;;;4.03;1.93;;;;;;;;;;4988530;28;20670;-89
2023/01/06 01:40:54;;;;;;;2.20;2.00;;;;;;;;;;4977013;28;20218;-89
2023/01/06 01:44:01;;;;;;;2.20;2.00;;;;;;;;;;4976806;28;20183;-89
2023/01/06 01:47:06;;;;;;;3.40;2.20;;;;;;;;;;4966166;28;20218;-89
2023/01/06 01:50:15;;;;;;;3.90;2.10;;;;;;;;;;4965772;28;20178;-90
2023/01/06 01:53:26;;;;;;;2.40;2.03;;;;;;;;;;4965930;28;20190;-90
2023/01/06 01:56:33;;;;;;;2.27;2.07;;;;;;;;;;4966093;28;20199;-92
2023/01/06 01:59:39;;;;;;;2.70;2.27;;;;;;;;;;4965317;28;20654;-91
2023/01/06 02:02:43;;;;;;;2.83;2.30;;;;;;;;;;4977226;28;20643;-91
2023/01/06 02:05:53;;;;;;;2.77;2.07;;;;;;;;;;4966040;28;20183;-91
2023/01/06 02:09:05;;;;;;;3.63;2.10;;;;;;;;;;4987167;28;20222;-91
2023/01/06 02:12:10;;;;;;;4.33;2.23;;;;;;;;;;4964668;28;20214;-91
2023/01/06 02:15:27;;;;;;;5.43;2.20;;;;;;;;;;4964763;28;20199;-91
2023/01/06 02:18:46;;;;;;;2.70;1.93;;;;;;;;;;4965465;28;20194;-91
2023/01/06 02:21:57;;;;;;;3.97;2.57;;;;;;;;;;4976413;28;20214;-91
2023/01/06 02:25:01;;;;;;;5.00;2.50;;;;;;;;;;4954250;28;20512;-91
2023/01/06 02:28:21;;;;;;;8.90;3.60;;;;;;;;;;4964361;28;20219;-91
2023/01/06 02:31:40;;;;;;;7.80;4.00;;;;;;;;;;4975488;28;20219;-91
2023/01/06 02:35:13;;;;;;;7.47;4.00;;;;;;;;;;4975648;28;20183;-90
2023/01/06 02:38:25;;;;;;;5.13;3.23;;;;;;;;;;4975183;28;20544;-91
2023/01/06 02:41:45;;;;;;;4.80;3.00;;;;;;;;;;4964391;28;20560;-91
2023/01/06 02:45:06;;;;;;;5.30;3.20;;;;;;;;;;4975116;28;20187;-91
2023/01/06 02:48:17;;;;;;;7.23;2.73;;;;;;;;;;4964394;28;20211;-91
2023/01/06 02:51:38;;;;;;;3.10;2.63;;;;;;;;;;4963585;28;20215;-91
2023/01/06 02:55:22;;;;;;;2.60;2.40;;;;;;;;;;4986328;28;20195;-91
2023/01/06 02:58:39;;;;;;;4.33;2.13;;;;;;;;;;4964142;28;20183;-91
2023/01/06 03:01:48;;;;;;;2.67;2.10;;;;;;;;;;4964185;28;20227;-91
2023/01/06 03:04:55;;;;;;;2.63;2.00;;;;;;;;;;4964054;28;20187;-91
2023/01/06 03:08:03;;;;;;;2.70;2.33;;;;;;;;;;4975309;28;20211;-91
2023/01/06 03:11:08;;;;;;;2.60;2.27;;;;;;;;;;4964690;28;20226;-90
2023/01/06 03:14:40;;;;;;;3.33;2.83;;;;;;;;;;4965331;28;20187;-91
2023/01/06 03:17:45;;;;;;;3.77;2.27;;;;;;;;;;4953702;28;20183;-91
2023/01/06 03:20:52;;;;;;;3.23;2.73;;;;;;;;;;4964065;28;20219;-90
2023/01/06 03:23:57;;;;;;;2.80;2.40;;;;;;;;;;4964548;28;20519;-92
2023/01/06 03:27:02;;;;;;;2.47;2.27;;;;;;;;;;4964653;28;20187;-91
2023/01/06 03:30:10;;;;;;;2.80;2.50;;;;;;;;;;4975243;28;20187;-91
2023/01/06 03:33:35;;;;;;;2.57;2.37;;;;;;;;;;4975293;28;20194;-91
2023/01/06 03:36:49;;;;;;;2.03;1.83;;;;;;;;;;4963979;28;20183;-91
2023/01/06 03:40:14;;;;;;;3.33;2.10;;;;;;;;;;4967462;28;20180;-91
2023/01/06 03:43:37;;;;;;;2.90;2.13;;;;;;;;;;4968083;28;20623;-91
2023/01/06 03:46:49;;;;;;;2.87;2.00;;;;;;;;;;4968018;28;20187;-91
2023/01/06 03:50:11;;;;;;;3.23;2.57;;;;;;;;;;4978766;28;20175;-91
2023/01/06 03:53:36;;;;;;;2.60;2.37;;;;;;;;;;4978832;28;20191;-91
2023/01/06 03:56:46;;;;;;;3.93;2.50;;;;;;;;;;4967666;28;20187;-91
2023/01/06 04:00:05;;;;;;;3.50;2.90;;;;;;;;;;4967002;28;20183;-91
2023/01/06 04:03:23;;;;;;;7.47;3.23;;;;;;;;;;4988137;28;20187;-91
2023/01/06 04:06:28;;;;;;;3.73;3.17;;;;;;;;;;4967183;28;20183;-91
2023/01/06 04:09:32;;;;;;;5.30;3.60;;;;;;;;;;4967016;28;20211;-91
2023/01/06 04:12:38;;;;;;;4.20;3.60;;;;;;;;;;4977724;28;20555;-91
2023/01/06 04:15:44;;;;;;;4.53;3.80;;;;;;;;;;4978080;28;20187;-91
2023/01/06 04:18:48;;;;;;;4.63;4.00;;;;;;;;;;4966782;28;20175;-91
2023/01/06 04:21:54;;;;;;;4.60;3.40;;;;;;;;;;4966804;28;20218;-91
2023/01/06 04:24:58;;;;;;;4.53;3.60;;;;;;;;;;4966558;28;20179;-91
2023/01/06 04:28:03;;;;;;;4.33;3.53;;;;;;;;;;4967126;28;20214;-91
2023/01/06 04:31:09;;;;;;;5.80;3.90;;;;;;;;;;4977032;28;20222;-91
2023/01/06 04:34:13;;;;;;;6.27;3.63;;;;;;;;;;4977738;28;20183;-91
2023/01/06 04:37:17;;;;;;;4.87;3.90;;;;;;;;;;4977555;28;20182;-91
2023/01/06 04:40:21;;;;;;;5.67;3.80;;;;;;;;;;4977132;28;20207;-91
2023/01/06 04:43:25;;;;;;;4.87;4.17;;;;;;;;;;4966149;28;20175;-91
2023/01/06 04:46:30;;;;;;;4.00;3.60;;;;;;;;;;4954829;28;20186;-91
2023/01/06 04:49:34;;;;;;;4.00;3.60;;;;;;;;;;4976708;28;20207;-91
2023/01/06 04:52:38;;;;;;;4.43;3.70;;;;;;;;;;4977469;28;20195;-91
2023/01/06 04:55:42;;;;;;;4.33;3.90;;;;;;;;;;4965619;28;20187;-91
2023/01/06 04:58:47;;;;;;;7.50;4.37;;;;;;;;;;4977425;28;20614;-91
2023/01/06 05:01:51;;;;;;;4.53;3.67;;;;;;;;;;4965904;28;20685;-91
2023/01/06 05:04:55;;;;;;;3.80;3.37;;;;;;;;;;4976972;28;20186;-91
2023/01/06 05:07:59;;;;;;;3.80;3.40;;;;;;;;;;4987613;28;20207;-91
2023/01/06 05:11:09;;;;;;;4.20;3.53;;;;;;;;;;4976510;28;20222;-91
2023/01/06 05:14:13;;;;;;;5.60;4.40;;;;;;;;;;4976446;28;20183;-91
2023/01/06 05:17:17;;;;;;;5.57;4.00;;;;;;;;;;4965287;28;20183;-91
2023/01/06 05:20:21;;;;;;;4.97;3.60;;;;;;;;;;4965227;28;20214;-91
2023/01/06 05:23:26;;;;;;;4.20;3.80;;;;;;;;;;4987212;28;20650;-91
2023/01/06 05:26:30;;;;;;;3.83;3.43;;;;;;;;;;4976093;28;20202;-91
2023/01/06 05:29:34;;;;;;;3.50;3.20;;;;;;;;;;4954527;28;20223;-91
2023/01/06 05:32:39;;;;;;;3.80;3.03;;;;;;;;;;4976191;28;20183;-90
2023/01/06 05:35:43;;;;;;;3.80;3.40;;;;;;;;;;4976389;28;20525;-91
2023/01/06 05:38:52;;;;;;;4.33;3.20;;;;;;;;;;4986939;28;20179;-92
2023/01/06 05:41:57;;;;;;;3.80;3.40;;;;;;;;;;4965001;28;20678;-91
2023/01/06 05:45:02;;;;;;;3.70;3.30;;;;;;;;;;4987059;28;20187;-91
2023/01/06 05:48:06;;;;;;;3.67;2.90;;;;;;;;;;4953809;28;20644;-91
2023/01/06 05:51:12;;;;;;;3.53;3.23;;;;;;;;;;4975495;28;20218;-91
2023/01/06 05:54:17;;;;;;;3.33;3.00;;;;;;;;;;4964624;28;20178;-91
2023/01/06 05:57:21;;;;;;;4.67;3.10;;;;;;;;;;4975342;28;20202;-91
2023/01/06 06:00:25;;;;;;;3.83;3.47;;;;;;;;;;4964447;28;20210;-91
2023/01/06 06:03:30;;;;;;;3.93;3.10;;;;;;;;;;4964503;28;20523;-91
2023/01/06 06:06:34;;;;;;;3.20;2.73;;;;;;;;;;4953200;28;20206;-91
2023/01/06 06:09:38;;;;;;;2.90;2.60;;;;;;;;;;4953633;28;20210;-91
2023/01/06 06:12:43;;;;;;;3.57;2.60;;;;;;;;;;4986692;28;20198;-91
2023/01/06 06:15:47;;;;;;;3.40;2.80;;;;;;;;;;4964470;28;20202;-91
2023/01/06 06:18:56;;;;;;;2.83;2.57;;;;;;;;;;4975869;28;20202;-91
2023/01/06 06:22:00;;;;;;;3.23;2.30;;;;;;;;;;4953349;28;20214;-91
2023/01/06 06:25:04;;;;;;;5.23;2.40;;;;;;;;;;4964094;28;20203;-91
2023/01/06 06:28:08;;;;;;;6.30;2.60;;;;;;;;;;4985900;28;20194;-91
2023/01/06 06:31:14;;;;;;;3.53;2.60;;;;;;;;;;4975452;28;20219;-91
2023/01/06 06:34:18;;;;;;;4.20;2.63;;;;;;;;;;4964995;28;20182;-91
2023/01/06 06:37:22;;;;;;;4.57;2.80;;;;;;;;;;4963893;28;20178;-91
2023/01/06 06:40:26;;;;;;;2.60;2.37;;;;;;;;;;4963738;28;20679;-91
2023/01/06 06:43:32;;;;;;;2.80;2.50;;;;;;;;;;4975009;28;20581;-91
2023/01/06 06:46:37;;;;;;;2.77;2.37;;;;;;;;;;4963969;28;20191;-91
2023/01/06 06:49:41;;;;;;;3.00;2.30;;;;;;;;;;4974989;28;20662;-91
2023/01/06 06:52:45;;;;;;;2.50;2.30;;;;;;;;;;4963953;28;20182;-91
2023/01/06 06:55:50;;;;;;;2.97;2.50;;;;;;;;;;4963644;28;20179;-91
2023/01/06 06:58:54;;;;;;;3.10;1.97;;;;;;;;;;4965309;28;20174;-91
2023/01/06 07:01:58;;;;;;;2.33;1.90;;;;;;;;;;4965500;28;20222;-91
2023/01/06 07:05:03;;;;;;;2.37;2.00;;;;;;;;;;4965258;28;20174;-91
2023/01/06 07:08:07;;;;;;;2.63;2.20;;;;;;;;;;4965649;28;20179;-91
2023/01/06 07:11:11;;;;;;;3.30;2.30;;;;;;;;;;4964831;28;20586;-90
2023/01/06 07:14:16;;;;;;;4.43;2.90;;;;;;;;;;4983459;28;20186;-91
2023/01/06 07:17:27;;;;;;;3.10;2.80;;;;;;;;;;4971977;28;20183;-90
2023/01/06 07:20:33;;;;;;;3.30;2.77;;;;;;;;;;4987433;28;20218;-90
2023/01/06 07:23:37;;;;;;;3.17;2.87;;;;;;;;;;4989930;28;20661;-90
2023/01/06 07:27:05;;;;;;;3.47;2.80;;;;;;;;;;4990666;28;20179;-91
2023/01/06 07:30:11;;;;;;;4.03;3.00;;;;;;;;;;4979536;28;20205;-91
2023/01/06 07:33:16;;;;;;;2.57;2.37;;;;;;;;;;4978550;28;20178;-90
2023/01/06 07:36:20;;;;;;;3.33;2.73;;;;;;;;;;4978132;28;20179;-91
2023/01/06 07:39:25;;;;;;;3.97;2.77;;;;;;;;;;4966999;28;20187;-91
2023/01/06 07:42:29;;;;;;;3.47;2.40;;;;;;;;;;4977556;28;20179;-92
2023/01/06 07:45:33;;;;;;;2.90;2.53;;;;;;;;;;4988268;28;20179;-92
2023/01/06 07:48:38;;;;;;;3.63;2.30;;;;;;;;;;4988559;28;20179;-92
2023/01/06 07:51:43;;;;;;;2.27;1.77;;;;;;;;;;4989572;28;20214;-92
2023/01/06 07:54:48;;;;;;;3.57;1.70;;;;;;;;;;4975941;28;20183;-89
2023/01/06 07:57:52;;;;;;;1.47;1.30;;;;;;;;;;4963882;28;20182;-88
2023/01/06 08:00:57;;;;;;;1.83;1.40;;;;;;;;;;4973514;28;20214;-88
2023/01/06 08:04:01;;;;;;;1.27;1.17;;;;;;;;;;4973562;28;20182;-88
2023/01/06 08:07:05;;;;;;;2.50;1.10;;;;;;;;;;4983433;28;20577;-87
2023/01/06 08:10:10;;;;;;;2.93;1.10;;;;;;;;;;4973094;28;20206;-88
2023/01/06 08:13:15;;;;;;;1.73;1.63;;;;;;;;;;4984088;28;20179;-88
2023/01/06 08:16:19;;;;;;;2.60;2.20;;;;;;;;;;4973493;28;20175;-87
2023/01/06 08:19:24;;;;;;;1.60;1.50;;;;;;;;;;4974002;28;20183;-90
2023/01/06 08:22:28;;;;;;;1.80;1.10;;;;;;;;;;4972873;28;20183;-88
2023/01/06 08:25:33;;;;;;;1.30;1.13;;;;;;;;;;4968406;28;20179;-88
2023/01/06 08:28:41;;;;;;;1.77;1.00;;;;;;;;;;4968462;28;20521;-88
2023/01/06 08:31:49;;;;;;;3.90;1.30;;;;;;;;;;4957380;28;20223;-88
2023/01/06 08:34:55;;;;;;;4.70;1.33;;;;;;;;;;4980932;28;20179;-88
2023/01/06 08:38:00;;;;;;;5.73;5.23;;;;;;;;;;4968767;28;20187;-88
2023/01/06 08:41:07;;;;;;;2.90;2.20;;;;;;;;;;4956510;28;20218;-88
2023/01/06 08:44:12;;;;;;;4.20;3.83;;;;;;;;;;4957047;28;20183;-88
2023/01/06 08:47:45;;;;;;;1.60;1.50;;;;;;;;;;4957657;28;20175;-88
2023/01/06 08:50:50;;;;;;;1.60;1.50;;;;;;;;;;4967612;28;20230;-88
2023/01/06 08:53:56;;;;;;;11.60;8.47;;;;;;;;;;4968306;28;20182;-89
2023/01/06 08:57:04;;;;;;;6.53;4.73;;;;;;;;;;4967938;28;20535;-88
2023/01/06 09:00:19;;;;;;;2.57;1.57;;;;;;;;;;4967311;28;20194;-89
2023/01/06 09:03:28;;;;;;;1.40;1.30;;;;;;;;;;4990634;28;20191;-88
2023/01/06 09:06:33;;;;;;;1.97;1.20;;;;;;;;;;4956151;28;20183;-89
2023/01/06 09:09:41;;;;;;;2.80;2.60;;;;;;;;;;4965902;28;20222;-89
2023/01/06 09:12:46;;;;;;;4.20;2.87;;;;;;;;;;4956164;28;20198;-89
2023/01/06 09:16:43;;;;;;;1.90;1.70;;;;;;;;;;4976684;28;20203;-89
2023/01/06 09:19:50;;;;;;;2.30;1.60;;;;;;;;;;4955990;28;20623;-89
2023/01/06 09:23:04;;;;;;;19.27;17.47;;;;;;;;;;4988333;28;20622;-88
2023/01/06 09:26:10;;;;;;;11.47;10.43;;;;;;;;;;4977720;28;20202;-88
2023/01/06 09:29:14;;;;;;;7.57;6.87;;;;;;;;;;4965662;28;20198;-88
2023/01/06 09:32:19;;;;;;;2.93;2.50;;;;;;;;;;4966730;28;20670;-89
2023/01/06 09:35:23;;;;;;;2.80;1.97;;;;;;;;;;4964625;28;20562;-88
2023/01/06 09:38:27;;;;;;;2.13;1.70;;;;;;;;;;4955038;28;20194;-86
2023/01/06 09:41:53;;;;;;;1.80;1.70;;;;;;;;;;4965938;28;20210;-86
2023/01/06 09:45:03;;;;;;;3.73;1.80;;;;;;;;;;4954296;28;20183;-88
2023/01/06 09:48:14;;;;;;;2.13;1.67;;;;;;;;;;4965333;28;20187;-88
2023/01/06 09:51:21;;;;;;;2.93;1.67;;;;;;;;;;4964602;28;20231;-88
2023/01/06 09:54:39;;;;;;;1.80;1.70;;;;;;;;;;4954632;28;20198;-88
2023/01/06 09:57:51;;;;;;;2.23;1.83;;;;;;;;;;4976479;28;20184;-87
2023/01/06 10:00:56;;;;;;;2.37;1.67;;;;;;;;;;4964837;28;20598;-88
2023/01/06 10:04:03;;;;;;;2.60;1.83;;;;;;;;;;4976564;28;20179;-88
2023/01/06 10:07:34;;;;;;;2.20;1.20;;;;;;;;;;4965393;28;20647;-88
2023/01/06 10:10:57;;;;;;;1.30;1.20;;;;;;;;;;4965023;28;20226;-88
2023/01/06 10:14:06;;;;;;;1.93;1.50;;;;;;;;;;4965403;28;20183;-88
2023/01/06 10:17:39;;;;;;;1.73;1.47;;;;;;;;;;4964431;28;20199;-88
2023/01/06 10:21:08;;;;;;;1.40;1.20;;;;;;;;;;4964594;28;20210;-88
2023/01/06 10:24:34;;;;;;;1.40;1.30;;;;;;;;;;4953569;28;20186;-88
2023/01/06 10:27:41;;;;;;;1.23;1.13;;;;;;;;;;4964869;28;20182;-88
2023/01/06 10:30:51;;;;;;;1.27;1.17;;;;;;;;;;4953557;28;20570;-88
2023/01/06 10:33:57;;;;;;;3.10;1.60;;;;;;;;;;4964492;28;20179;-88
2023/01/06 10:37:13;;;;;;;1.70;1.40;;;;;;;;;;4975245;28;20179;-88
2023/01/06 10:40:25;;;;;;;1.73;1.30;;;;;;;;;;4964468;28;20215;-88
2023/01/06 10:43:30;;;;;;;1.77;1.40;;;;;;;;;;4965400;28;20187;-88
2023/01/06 10:46:35;;;;;;;1.47;1.30;;;;;;;;;;4965458;28;20182;-88
2023/01/06 10:49:39;;;;;;;1.40;1.23;;;;;;;;;;4965204;28;20182;-88
2023/01/06 10:52:45;;;;;;;2.67;1.70;;;;;;;;;;4965141;28;20183;-88
2023/01/06 10:55:53;;;;;;;2.77;1.37;;;;;;;;;;4975790;28;20178;-88
2023/01/06 10:59:10;;;;;;;1.37;1.10;;;;;;;;;;4977298;28;20187;-89
2023/01/06 11:02:23;;;;;;;2.93;1.43;;;;;;;;;;4965120;28;20555;-88
2023/01/06 11:05:31;;;;;;;1.77;1.20;;;;;;;;;;4953585;28;20203;-88
2023/01/06 11:08:37;;;;;;;3.23;1.53;;;;;;;;;;4964983;28;20183;-88
2023/01/06 11:11:47;;;;;;;2.83;1.53;;;;;;;;;;4953369;28;20230;-88
2023/01/06 11:14:58;;;;;;;2.17;1.50;;;;;;;;;;4974851;28;20190;-88
2023/01/06 11:18:04;;;;;;;2.20;1.70;;;;;;;;;;4975523;28;20544;-88
2023/01/06 11:21:11;;;;;;;1.60;1.50;;;;;;;;;;4964164;28;20215;-89
2023/01/06 11:24:23;;;;;;;2.00;1.70;;;;;;;;;;4964317;28;20187;-88
2023/01/06 11:27:27;;;;;;;3.53;1.70;;;;;;;;;;4964353;28;20533;-88
2023/01/06 11:30:43;;;;;;;1.80;1.70;;;;;;;;;;4975153;28;20230;-88
2023/01/06 11:34:00;;;;;;;3.63;2.10;;;;;;;;;;4963843;28;20562;-88
2023/01/06 11:37:05;;;;;;;2.80;2.10;;;;;;;;;;4963885;28;20183;-88
2023/01/06 11:40:31;;;;;;;2.50;1.80;;;;;;;;;;4963699;28;20179;-88
2023/01/06 11:43:37;;;;;;;3.43;1.80;;;;;;;;;;4963686;28;20183;-88
2023/01/06 11:46:55;;;;;;;1.90;1.70;;;;;;;;;;4974641;28;20199;-88
2023/01/06 11:50:00;;;;;;;3.47;1.60;;;;;;;;;;4963622;28;20215;-88
2023/01/06 11:53:16;;;;;;;2.30;1.90;;;;;;;;;;4974795;28;20175;-88
2023/01/06 11:56:20;;;;;;;2.13;1.73;;;;;;;;;;4963137;28;20191;-88
2023/01/06 11:59:30;;;;;;;2.23;1.60;;;;;;;;;;4975687;28;20183;-89
2023/01/06 12:02:55;;;;;;;2.10;1.83;;;;;;;;;;4967141;28;20520;-89
2023/01/06 12:06:13;;;;;;;2.53;2.00;;;;;;;;;;4967068;28;20179;-88
2023/01/06 12:09:28;;;;;;;1.97;1.60;;;;;;;;;;4967085;28;20191;-88
2023/01/06 12:12:32;;;;;;;2.90;1.77;;;;;;;;;;4966911;28;20195;-88
2023/01/06 12:15:39;;;;;;;3.60;1.60;;;;;;;;;;4955961;28;20199;-88
2023/01/06 12:18:44;;;;;;;2.50;1.80;;;;;;;;;;4967042;28;20179;-89
2023/01/06 12:21:50;;;;;;;1.87;1.60;;;;;;;;;;4966562;28;20210;-88
2023/01/06 12:24:57;;;;;;;1.83;1.30;;;;;;;;;;4966232;28;20199;-88
2023/01/06 12:28:05;;;;;;;1.33;1.10;;;;;;;;;;4955581;28;20182;-89
2023/01/06 12:31:14;;;;;;;1.80;1.47;;;;;;;;;;4966516;28;20226;-88
2023/01/06 12:34:24;;;;;;;1.70;1.43;;;;;;;;;;4966424;28;20183;-89
2023/01/06 12:37:44;;;;;;;1.57;1.40;;;;;;;;;;4955062;28;20191;-88
2023/01/06 12:40:54;;;;;;;2.70;1.50;;;;;;;;;;4966081;28;20219;-88
2023/01/06 12:44:02;;;;;;;1.70;1.57;;;;;;;;;;4965970;28;20179;-88
2023/01/06 12:47:24;;;;;;;1.97;1.67;;;;;;;;;;4966337;28;20175;-89
2023/01/06 12:50:51;;;;;;;2.23;1.67;;;;;;;;;;4965621;28;20231;-88
2023/01/06 12:54:19;;;;;;;1.27;1.17;;;;;;;;;;4966094;28;20187;-88
2023/01/06 12:57:45;;;;;;;1.50;1.40;;;;;;;;;;4955102;28;20179;-88
2023/01/06 13:00:56;;;;;;;1.53;1.40;;;;;;;;;;4954693;28;20678;-88
2023/01/06 13:04:12;;;;;;;1.60;1.40;;;;;;;;;;4977170;28;20183;-88
2023/01/06 13:07:25;;;;;;;1.80;1.53;;;;;;;;;;4965912;28;20627;-88
2023/01/06 13:10:43;;;;;;;2.07;1.80;;;;;;;;;;4964895;28;20226;-89
2023/01/06 13:13:54;;;;;;;3.10;1.60;;;;;;;;;;4966319;28;20191;-88
2023/01/06 13:17:10;;;;;;;2.13;1.83;;;;;;;;;;4955715;28;20198;-88
2023/01/06 13:20:39;;;;;;;2.20;1.93;;;;;;;;;;4977406;28;20219;-89
2023/01/06 13:23:50;;;;;;;2.43;2.00;;;;;;;;;;4972402;28;20523;-89
2023/01/06 13:27:13;;;;;;;2.43;2.10;;;;;;;;;;4967306;28;20179;-88
2023/01/06 13:30:26;;;;;;;2.90;2.10;;;;;;;;;;4966253;28;20674;-88
2023/01/06 13:34:06;;;;;;;2.60;2.37;;;;;;;;;;4966411;28;20195;-88
2023/01/06 13:37:19;;;;;;;2.60;2.30;;;;;;;;;;4955135;28;20635;-89
2023/01/06 13:40:27;;;;;;;3.07;2.60;;;;;;;;;;4965762;28;20214;-88
2023/01/06 13:43:34;;;;;;;3.10;2.40;;;;;;;;;;4966022;28;20175;-88
2023/01/06 13:46:39;;;;;;;2.37;2.17;;;;;;;;;;4965965;28;20183;-89
2023/01/06 13:49:44;;;;;;;3.00;2.40;;;;;;;;;;4954726;28;20183;-88
2023/01/06 13:52:50;;;;;;;2.60;2.30;;;;;;;;;;4965326;28;20191;-88
2023/01/06 13:56:13;;;;;;;2.23;2.00;;;;;;;;;;4976515;28;20182;-90
2023/01/06 13:59:20;;;;;;;2.87;2.50;;;;;;;;;;4976783;28;20183;-90
2023/01/06 14:02:30;;;;;;;1.83;1.63;;;;;;;;;;4965197;28;20179;-90
2023/01/06 14:05:34;;;;;;;2.50;1.70;;;;;;;;;;4976776;28;20175;-91
2023/01/06 14:08:47;;;;;;;2.20;1.97;;;;;;;;;;4965093;28;20179;-90
2023/01/06 14:11:52;;;;;;;2.13;1.80;;;;;;;;;;4975065;28;20226;-90
2023/01/06 14:15:00;;;;;;;2.37;1.80;;;;;;;;;;4964443;28;20619;-90
2023/01/06 14:18:04;;;;;;;2.40;2.00;;;;;;;;;;4963978;28;20551;-90
2023/01/06 14:21:11;;;;;;;1.90;1.70;;;;;;;;;;4975210;28;20218;-90
2023/01/06 14:24:21;;;;;;;2.57;1.83;;;;;;;;;;4975251;28;20174;-90
2023/01/06 14:27:46;;;;;;;2.90;2.10;;;;;;;;;;4975177;28;20544;-90
2023/01/06 14:31:25;;;;;;;2.47;1.90;;;;;;;;;;4953153;28;20235;-90
2023/01/06 14:34:31;;;;;;;2.33;2.10;;;;;;;;;;4964068;28;20178;-90
2023/01/06 14:37:57;;;;;;;2.27;2.00;;;;;;;;;;4986482;28;20534;-90
2023/01/06 14:41:12;;;;;;;2.23;2.03;;;;;;;;;;4952982;28;20211;-90
2023/01/06 14:44:23;;;;;;;2.93;2.10;;;;;;;;;;4964016;28;20535;-90
2023/01/06 14:47:41;;;;;;;2.53;1.97;;;;;;;;;;4963945;28;20182;-91
2023/01/06 14:50:50;;;;;;;2.90;2.30;;;;;;;;;;4963607;28;20223;-90
2023/01/06 14:54:05;;;;;;;4.67;2.60;;;;;;;;;;4963817;28;20191;-91
2023/01/06 14:57:24;;;;;;;2.37;2.13;;;;;;;;;;4974627;28;20183;-91
2023/01/06 15:00:32;;;;;;;4.50;2.63;;;;;;;;;;4963426;28;20233;-88
2023/01/06 15:03:36;;;;;;;2.60;2.30;;;;;;;;;;4963411;28;20619;-88
2023/01/06 15:06:40;;;;;;;2.50;2.30;;;;;;;;;;4974305;28;20198;-89
2023/01/06 15:09:46;;;;;;;2.40;2.20;;;;;;;;;;4974560;28;20179;-88
2023/01/06 15:12:51;;;;;;;2.30;2.10;;;;;;;;;;4985874;28;20222;-88
2023/01/06 15:16:03;;;;;;;3.67;2.67;;;;;;;;;;4963621;28;20198;-88
2023/01/06 15:19:13;;;;;;;3.27;2.80;;;;;;;;;;4974590;28;20187;-88
2023/01/06 15:22:20;;;;;;;3.63;3.00;;;;;;;;;;4985314;28;20208;-89
2023/01/06 15:25:26;;;;;;;3.23;2.93;;;;;;;;;;4952792;28;20187;-88
2023/01/06 15:28:33;;;;;;;3.67;3.17;;;;;;;;;;4963216;28;20203;-88
2023/01/06 15:31:38;;;;;;;4.00;3.33;;;;;;;;;;4974261;28;20586;-89
2023/01/06 15:34:45;;;;;;;3.80;3.07;;;;;;;;;;4977676;28;20182;-88
2023/01/06 15:37:57;;;;;;;4.13;3.43;;;;;;;;;;4978273;28;20202;-88
2023/01/06 15:41:04;;;;;;;4.83;3.67;;;;;;;;;;4978382;28;20222;-89
2023/01/06 15:44:22;;;;;;;10.40;6.07;;;;;;;;;;4978125;28;20175;-88
2023/01/06 15:47:43;;;;;;;11.00;7.87;;;;;;;;;;4967088;28;20198;-89
2023/01/06 15:50:47;;;;;;;5.60;4.20;;;;;;;;;;4977969;28;20551;-89
2023/01/06 15:53:57;;;;;;;5.27;3.17;;;;;;;;;;4978036;28;20179;-88
2023/01/06 15:57:02;;;;;;;2.83;2.33;;;;;;;;;;4977462;28;20190;-88
2023/01/06 16:00:18;;;;;;;3.60;2.80;;;;;;;;;;4977927;28;20542;-89
2023/01/06 16:03:24;;;;;;;8.87;6.57;;;;;;;;;;4966453;28;20195;-88
2023/01/06 16:06:35;;;;;;;7.70;5.50;;;;;;;;;;4966484;28;20178;-89
2023/01/06 16:09:39;;;;;;;7.73;5.90;;;;;;;;;;4978083;28;20542;-88
2023/01/06 16:12:43;;;;;;;19.67;14.03;;;;;;;;;;4977215;28;20601;-89
2023/01/06 16:15:51;;;;;;;20.10;14.23;;;;;;;;;;4966220;28;20198;-89
2023/01/06 16:18:55;;;;;;;30.40;19.53;;;;;;;;;;4968408;28;20179;-88
2023/01/06 16:22:04;;;;;;;23.30;15.60;;;;;;;;;;4979934;28;20210;-88
2023/01/06 16:25:22;;;;;;;16.23;11.97;;;;;;;;;;4966535;28;20627;-88
2023/01/06 16:28:26;;;;;;;15.60;11.33;;;;;;;;;;4977821;28;20183;-89
2023/01/06 16:31:31;;;;;;;10.30;7.20;;;;;;;;;;4977133;28;20559;-89
2023/01/06 16:34:35;;;;;;;126.13;56.90;;;;;;;;;;4968556;28;20187;-88
2023/01/06 16:37:39;;;;;;;143.50;71.23;;;;;;;;;;4980008;28;20190;-88
2023/01/06 16:40:43;;;;;;;129.33;63.53;;;;;;;;;;4966293;28;20578;-89
2023/01/06 16:43:47;;;;;;;83.73;42.43;;;;;;;;;;4966176;28;20182;-88
2023/01/06 16:46:51;;;;;;;75.07;36.93;;;;;;;;;;4965587;28;20198;-88
2023/01/06 16:49:56;;;;;;;53.60;28.37;;;;;;;;;;4966334;28;20684;-88
2023/01/06 16:53:09;;;;;;;8.93;5.97;;;;;;;;;;4976541;28;20222;-88
2023/01/06 16:56:17;;;;;;;4.70;3.30;;;;;;;;;;4965873;28;20195;-88
2023/01/06 16:59:33;;;;;;;2.37;2.10;;;;;;;;;;4954962;28;20175;-88
2023/01/06 17:02:37;;;;;;;2.90;2.20;;;;;;;;;;4967840;28;20179;-88
2023/01/06 17:05:42;;;;;;;2.27;2.07;;;;;;;;;;4979736;28;20179;-89
2023/01/06 17:08:47;;;;;;;2.40;2.20;;;;;;;;;;4990314;28;20187;-88
2023/01/06 17:11:51;;;;;;;2.50;2.30;;;;;;;;;;4957212;28;20226;-88
2023/01/06 17:14:56;;;;;;;128.63;61.43;;;;;;;;;;4989739;28;20179;-88
2023/01/06 17:18:00;;;;;;;169.27;83.57;;;;;;;;;;4990448;28;20209;-88
2023/01/06 17:21:13;;;;;;;295.87;136.73;;;;;;;;;;4980491;28;20221;-88
2023/01/06 17:24:23;;;;;;;143.53;72.10;;;;;;;;;;4972587;28;20267;-89
2023/01/06 17:27:28;;;;;;;156.67;82.73;;;;;;;;;;4974810;28;20205;-88
2023/01/06 17:30:33;;;;;;;30.83;17.63;;;;;;;;;;4985571;28;20229;-88
2023/01/06 17:33:37;;;;;;;17.27;10.97;;;;;;;;;;4974940;28;20206;-88
2023/01/06 17:36:44;;;;;;;6.10;4.23;;;;;;;;;;4973457;28;20183;-88
2023/01/06 17:39:48;;;;;;;3.10;2.53;;;;;;;;;;4973690;28;20646;-88
2023/01/06 17:43:01;;;;;;;5.87;3.67;;;;;;;;;;4995453;28;20179;-88
2023/01/06 17:46:18;;;;;;;4.93;2.90;;;;;;;;;;4983231;28;20191;-88
2023/01/06 17:49:34;;;;;;;2.77;2.00;;;;;;;;;;4972475;28;20546;-88
2023/01/06 17:52:39;;;;;;;1.90;1.60;;;;;;;;;;4982039;28;20222;-88
2023/01/06 17:55:47;;;;;;;1.87;1.50;;;;;;;;;;4981981;28;20183;-88
2023/01/06 17:58:51;;;;;;;2.03;1.47;;;;;;;;;;4970547;28;20179;-88
2023/01/06 18:01:56;;;;;;;2.30;1.37;;;;;;;;;;4992710;28;20211;-88
2023/01/06 18:05:31;;;;;;;2.20;1.50;;;;;;;;;;4980734;28;20207;-88
2023/01/06 18:08:37;;;;;;;1.27;1.17;;;;;;;;;;4979522;28;20183;-88
2023/01/06 18:11:45;;;;;;;1.67;1.57;;;;;;;;;;4967860;28;20226;-88
2023/01/06 18:14:49;;;;;;;4.97;3.77;;;;;;;;;;4967574;28;20191;-88
2023/01/06 18:17:55;;;;;;;2.23;1.87;;;;;;;;;;4968151;28;20218;-89
2023/01/06 18:21:04;;;;;;;2.10;1.87;;;;;;;;;;4966948;28;20670;-88
2023/01/06 18:24:16;;;;;;;1.70;1.43;;;;;;;;;;4977869;28;20187;-89
2023/01/06 18:27:32;;;;;;;2.10;1.50;;;;;;;;;;4955528;28;20246;-89
2023/01/06 18:30:36;;;;;;;1.47;1.37;;;;;;;;;;4987955;28;20214;-88
2023/01/06 18:33:40;;;;;;;2.70;1.50;;;;;;;;;;4954773;28;20206;-88
2023/01/06 18:36:44;;;;;;;1.87;1.10;;;;;;;;;;4977208;28;20630;-89
2023/01/06 18:39:52;;;;;;;1.53;1.37;;;;;;;;;;4976912;28;20627;-89
2023/01/06 18:42:56;;;;;;;2.43;1.90;;;;;;;;;;4976441;28;20178;-88
2023/01/06 18:46:08;;;;;;;2.83;2.00;;;;;;;;;;4976322;28;20174;-89
2023/01/06 18:49:14;;;;;;;2.50;1.93;;;;;;;;;;4976503;28;20183;-89
2023/01/06 18:52:40;;;;;;;2.70;1.90;;;;;;;;;;4965165;28;20234;-88